Time;durP1;ratioP1;P1;durP2;ratioP2;P2;SDS_P1;SDS_P2;PMS_P1;PMS_P2;Temp;Humidity;BMP_temperature;BMP_pressure;BME280_temperature;BME280_humidity;BME280_pressure;Samples;Min_cycle;Max_cycle;Signal;HPM_P1;HPM_P2
2022/04/09 00:01:53;;;;;;;4.30;3.80;;;;;;;7.09;67.65;98970.34;1648751;85;21056;-69
2022/04/09 00:04:19;;;;;;;8.80;4.37;;;;;;;7.02;68.03;98972.96;1646336;85;21092;-69
2022/04/09 00:06:47;;;;;;;3.57;3.27;;;;;;;6.95;68.31;98972.63;1680301;84;21535;-69
2022/04/09 00:09:13;;;;;;;3.60;2.53;;;;;;;6.88;68.48;98973.14;1668211;84;21726;-68
2022/04/09 00:11:41;;;;;;;;;;;;;;;6.82;68.85;98974.75;1668754;84;21872;-68
2022/04/09 00:14:09;;;;;;;6.53;3.53;;;;;;;6.78;69.09;98975.64;1671616;84;20130;-70
2022/04/09 00:16:36;;;;;;;;;;;;;;;6.68;69.49;98972.52;1676645;84;21207;-69
2022/04/09 00:19:02;;;;;;;6.97;3.57;;;;;;;6.63;69.75;98973.64;1673511;84;20202;-69
2022/04/09 00:21:31;;;;;;;4.50;3.37;;;;;;;6.55;69.93;98969.81;1667977;84;21584;-68
2022/04/09 00:23:58;;;;;;;6.07;4.17;;;;;;;6.51;70.36;98972.03;1668832;84;21155;-69
2022/04/09 00:26:26;;;;;;;5.47;3.93;;;;;;;6.50;70.25;98970.41;1667826;84;21043;-68
2022/04/09 00:28:53;;;;;;;5.50;4.00;;;;;;;6.48;70.33;98971.11;1674720;84;21527;-68
2022/04/09 00:31:20;;;;;;;5.30;3.90;;;;;;;6.45;70.29;98972.01;1669580;84;21020;-68
2022/04/09 00:33:47;;;;;;;6.03;4.50;;;;;;;6.46;70.33;98965.69;1667381;84;21099;-68
2022/04/09 00:36:13;;;;;;;6.70;4.50;;;;;;;6.47;70.36;98964.69;1655036;84;22217;-68
2022/04/09 00:38:40;;;;;;;6.40;4.45;;;;;;;6.47;70.43;98966.82;1668754;84;21071;-69
2022/04/09 00:41:10;;;;;;;7.80;4.70;;;;;;;6.48;70.46;98967.14;1669067;85;21052;-68
2022/04/09 00:43:42;;;;;;;5.90;4.13;;;;;;;6.49;70.56;98960.82;1659561;84;21359;-67
2022/04/09 00:46:12;;;;;;;6.50;4.50;;;;;;;6.51;70.58;98969.90;1665202;84;21079;-68
2022/04/09 00:48:40;;;;;;;4.03;3.73;;;;;;;6.53;70.68;98979.78;1665038;84;21018;-68
2022/04/09 00:51:08;;;;;;;4.63;4.10;;;;;;;6.49;70.90;98974.58;1668955;84;21066;-68
2022/04/09 00:53:42;;;;;;;6.90;3.97;;;;;;;6.46;71.13;98982.89;1644995;86;21678;-69
2022/04/09 00:56:15;;;;;;;6.57;4.40;;;;;;;6.39;71.30;98979.70;1656523;84;21055;-69
2022/04/09 00:58:55;;;;;;;7.83;4.40;;;;;;;6.34;71.59;98988.73;1673423;84;21114;-68
2022/04/09 01:03:27;;;;;;;5.97;4.13;;;;;;;6.32;72.02;98976.20;1797276;78;22587;-68
2022/04/09 01:05:55;;;;;;;6.37;4.13;;;;;;;6.22;72.19;98966.48;1785261;80;21012;-69
2022/04/09 01:08:24;;;;;;;4.57;3.97;;;;;;;6.17;72.33;98964.39;1742634;80;21512;-68
2022/04/09 01:10:54;;;;;;;4.43;4.03;;;;;;;6.18;72.26;98970.53;1779533;80;21128;-68
2022/04/09 01:13:23;;;;;;;3.40;3.13;;;;;;;6.17;72.18;98959.10;1727567;80;21174;-67
2022/04/09 01:15:49;;;;;;;3.63;3.00;;;;;;;6.20;72.31;98957.92;1723648;82;21044;-67
2022/04/09 01:18:18;;;;;;;6.73;3.67;;;;;;;6.19;72.29;98961.05;1725569;83;21033;-69
2022/04/09 01:20:47;;;;;;;6.60;4.03;;;;;;;6.19;72.25;98958.91;1722464;82;20967;-69
2022/04/09 01:23:14;;;;;;;6.23;3.07;;;;;;;6.18;72.35;98970.01;1722409;82;21502;-69
2022/04/09 01:25:42;;;;;;;5.10;4.20;;;;;;;6.18;72.48;98967.36;1727149;82;21050;-68
2022/04/09 01:28:10;;;;;;;3.47;3.17;;;;;;;6.13;72.72;98967.63;1726415;82;21002;-68
2022/04/09 01:30:38;;;;;;;5.30;2.70;;;;;;;6.15;72.77;98968.25;1725948;83;22152;-68
2022/04/09 01:33:04;;;;;;;;;;;;;;;6.12;73.04;98980.53;1731687;82;22106;-68
2022/04/09 01:35:33;;;;;;;4.70;3.33;;;;;;;6.11;72.93;98975.75;1726980;81;20458;-68
2022/04/09 01:38:00;;;;;;;4.00;3.23;;;;;;;6.06;73.07;98965.44;1725749;81;21392;-68
2022/04/09 01:40:27;;;;;;;4.67;3.53;;;;;;;5.75;73.22;98908.44;1691095;82;20996;-69
2022/04/09 01:42:55;;;;;;;2.63;2.43;;;;;;;6.10;73.18;98961.39;1724610;82;21046;-69
2022/04/09 01:45:23;;;;;;;4.50;3.00;;;;;;;6.12;73.14;98958.89;1716129;80;22299;-69
2022/04/09 01:47:49;;;;;;;;;;;;;;;6.14;73.08;98959.99;1741329;80;21113;-69
2022/04/09 01:50:16;;;;;;;3.43;3.07;;;;;;;6.16;72.97;98956.64;1745796;80;20125;-69
2022/04/09 01:52:44;;;;;;;4.03;3.53;;;;;;;6.14;72.93;98961.31;1749101;80;21006;-69
2022/04/09 01:55:11;;;;;;;3.77;3.17;;;;;;;6.19;72.86;98965.53;1704471;83;21057;-69
2022/04/09 01:57:39;;;;;;;3.63;2.63;;;;;;;6.23;72.59;98962.80;1696539;83;21160;-69
2022/04/09 02:00:10;;;;;;;3.27;2.60;;;;;;;6.21;72.16;98951.08;1685175;84;21082;-68
2022/04/09 02:02:40;;;;;;;3.33;2.93;;;;;;;6.34;71.95;98954.33;1673144;83;21312;-69
2022/04/09 02:05:11;;;;;;;5.00;3.03;;;;;;;6.01;71.50;98894.09;1681999;84;21626;-69
2022/04/09 02:07:39;;;;;;;4.10;3.77;;;;;;;6.45;71.44;98957.45;1705906;82;21041;-69
2022/04/09 02:10:08;;;;;;;4.00;2.90;;;;;;;6.45;71.34;98956.94;1711187;82;21459;-68
2022/04/09 02:12:38;;;;;;;4.20;3.57;;;;;;;6.46;71.61;98949.80;1710620;81;20988;-69
2022/04/09 02:15:08;;;;;;;3.27;2.97;;;;;;;6.47;71.47;98951.45;1726481;81;21066;-69
2022/04/09 02:17:38;;;;;;;4.83;3.00;;;;;;;6.48;71.58;98941.16;1740938;81;21057;-69
2022/04/09 02:20:08;;;;;;;3.73;3.33;;;;;;;6.47;71.58;98936.38;1729484;81;21673;-70
2022/04/09 02:22:38;;;;;;;6.83;3.10;;;;;;;6.47;71.87;98938.22;1704051;82;21093;-69
2022/04/09 02:25:09;;;;;;;5.03;3.70;;;;;;;6.45;71.87;98934.95;1725082;81;21493;-69
2022/04/09 02:27:37;;;;;;;3.23;2.93;;;;;;;6.45;71.78;98926.50;1725322;81;21104;-68
2022/04/09 02:30:07;;;;;;;4.17;3.13;;;;;;;6.47;71.89;98923.14;1721940;81;21901;-69
2022/04/09 02:32:51;;;;;;;3.20;2.87;;;;;;;6.51;71.71;98906.36;1699647;83;21053;-69
2022/04/09 02:35:26;;;;;;;2.93;2.23;;;;;;;6.48;71.47;98898.32;1689544;82;21046;-69
2022/04/09 02:37:56;;;;;;;3.13;2.03;;;;;;;6.45;71.16;98883.34;1690831;83;21046;-68
2022/04/09 02:40:24;;;;;;;5.20;2.97;;;;;;;6.39;71.45;98873.03;1686199;83;21193;-68
2022/04/09 02:42:51;;;;;;;4.17;2.77;;;;;;;6.33;71.60;98881.25;1679957;83;21085;-69
2022/04/09 02:45:21;;;;;;;4.23;2.57;;;;;;;6.36;71.59;98878.70;1695146;83;21427;-68
2022/04/09 02:47:47;;;;;;;4.63;3.37;;;;;;;6.40;71.38;98884.75;1681945;83;21082;-68
2022/04/09 02:50:16;;;;;;;6.93;3.50;;;;;;;6.49;71.30;98888.55;1692519;83;21740;-68
2022/04/09 02:52:44;;;;;;;3.20;2.90;;;;;;;6.58;71.10;98888.69;1681897;82;21586;-68
2022/04/09 02:55:14;;;;;;;3.53;2.97;;;;;;;6.68;70.85;98888.30;1679433;83;21043;-69
2022/04/09 02:57:41;;;;;;;8.03;3.03;;;;;;;6.76;70.57;98890.77;1664829;84;21079;-69
2022/04/09 03:00:11;;;;;;;3.70;3.00;;;;;;;6.82;70.24;98886.83;1666238;84;21159;-69
2022/04/09 03:02:40;;;;;;;4.57;2.97;;;;;;;6.87;69.98;98884.89;1696595;83;21612;-69
2022/04/09 03:05:11;;;;;;;4.07;3.47;;;;;;;6.86;69.63;98881.14;1644321;85;21055;-69
2022/04/09 03:07:38;;;;;;;3.17;2.90;;;;;;;6.79;69.72;98883.24;1690583;83;21076;-69
2022/04/09 03:10:06;;;;;;;5.85;3.15;;;;;;;6.72;69.91;98877.11;1652258;85;21354;-69
2022/04/09 03:12:33;;;;;;;5.40;2.97;;;;;;;6.68;70.13;98872.42;1687675;83;21191;-69
2022/04/09 03:15:00;;;;;;;5.45;3.37;;;;;;;6.70;70.13;98870.39;1689068;83;21030;-69
2022/04/09 03:17:27;;;;;;;3.47;3.17;;;;;;;6.71;70.04;98873.36;1684191;83;21138;-69
2022/04/09 03:19:54;;;;;;;4.43;3.43;;;;;;;6.74;70.00;98876.91;1684584;83;21009;-69
2022/04/09 03:22:22;;;;;;;3.90;3.50;;;;;;;6.74;69.63;98876.42;1676255;83;21575;-69
2022/04/09 03:24:49;;;;;;;5.07;3.77;;;;;;;6.79;69.72;98878.47;1682832;84;21607;-69
2022/04/09 03:27:16;;;;;;;6.73;3.40;;;;;;;6.83;69.57;98872.55;1685977;83;21145;-70
2022/04/09 03:29:42;;;;;;;5.53;3.22;;;;;;;6.83;69.41;98867.26;1685936;83;21590;-70
2022/04/09 03:32:09;;;;;;;3.40;3.10;;;;;;;6.84;69.14;98872.06;1683935;83;21533;-69
2022/04/09 03:34:37;;;;;;;11.93;3.63;;;;;;;6.86;69.19;98860.77;1673440;83;21142;-70
2022/04/09 03:37:05;;;;;;;6.00;3.60;;;;;;;6.89;69.25;98852.91;1692966;84;21019;-70
2022/04/09 03:39:32;;;;;;;5.90;3.43;;;;;;;6.99;69.20;98855.48;1695454;84;21119;-69
2022/04/09 03:41:59;;;;;;;4.80;4.10;;;;;;;7.08;69.02;98865.37;1680058;84;21024;-68
2022/04/09 03:44:26;;;;;;;5.53;3.67;;;;;;;7.16;68.83;98877.12;1673174;84;21076;-71
2022/04/09 03:47:01;;;;;;;3.53;3.13;;;;;;;7.24;68.71;98880.59;1624676;87;21146;-68
2022/04/09 03:49:32;;;;;;;8.40;4.23;;;;;;;7.28;68.77;98886.61;1655397;84;21107;-70
2022/04/09 03:52:00;;;;;;;4.70;3.33;;;;;;;7.31;68.91;98889.34;1655453;85;21110;-69
2022/04/09 03:54:27;;;;;;;4.10;3.60;;;;;;;7.32;69.22;98885.69;1659878;85;21075;-70
2022/04/09 03:56:55;;;;;;;6.47;3.23;;;;;;;7.31;69.66;98884.89;1706058;83;21596;-69
2022/04/09 03:59:23;;;;;;;6.00;4.30;;;;;;;7.32;70.23;98885.69;1691550;82;21158;-70
2022/04/09 04:01:52;;;;;;;6.87;4.73;;;;;;;7.35;70.97;98901.20;1695022;83;21131;-70
2022/04/09 04:04:21;;;;;;;7.43;3.17;;;;;;;7.37;70.92;98916.39;1678042;83;21161;-68
2022/04/09 04:06:49;;;;;;;6.50;3.90;;;;;;;7.39;71.94;98926.28;1687853;83;21058;-68
2022/04/09 04:09:17;;;;;;;3.70;3.33;;;;;;;7.37;72.88;98929.13;1689139;83;20955;-68
2022/04/09 04:11:46;;;;;;;6.23;4.60;;;;;;;7.35;73.92;98952.89;1683893;83;21033;-68
2022/04/09 04:14:15;;;;;;;10.67;4.37;;;;;;;7.34;74.16;98969.80;1669075;84;21015;-68
2022/04/09 04:16:43;;;;;;;7.47;5.73;;;;;;;7.35;74.58;98974.91;1680415;84;21553;-69
2022/04/09 04:19:10;;;;;;;8.23;5.63;;;;;;;7.39;74.44;98984.61;1677237;85;21031;-69
2022/04/09 04:21:38;;;;;;;6.10;4.80;;;;;;;7.40;74.18;98981.76;1684057;84;21077;-69
2022/04/09 04:24:07;;;;;;;5.83;4.40;;;;;;;7.38;74.29;98976.33;1684674;84;21161;-69
2022/04/09 04:26:34;;;;;;;5.85;4.33;;;;;;;7.35;74.64;98980.73;1655351;84;21209;-68
2022/04/09 04:29:03;;;;;;;5.20;4.20;;;;;;;7.37;75.12;98982.14;1680462;84;21019;-69
2022/04/09 04:31:31;;;;;;;6.07;4.03;;;;;;;7.41;75.24;98978.08;1684056;84;21105;-69
2022/04/09 04:33:59;;;;;;;4.30;3.90;;;;;;;7.42;73.44;98977.55;1701977;82;21148;-69
2022/04/09 04:36:28;;;;;;;5.20;4.00;;;;;;;7.38;72.86;98974.52;1705568;83;21058;-70
2022/04/09 04:38:55;;;;;;;5.97;3.30;;;;;;;7.34;72.82;98971.13;1721932;81;21030;-69
2022/04/09 04:41:22;;;;;;;4.80;4.30;;;;;;;7.34;72.20;98971.94;1728500;82;21089;-69
2022/04/09 04:43:51;;;;;;;9.70;2.97;;;;;;;7.36;72.03;98971.73;1729492;81;21112;-69
2022/04/09 04:46:19;;;;;;;4.47;3.63;;;;;;;7.37;71.21;98974.71;1687046;82;21011;-69
2022/04/09 04:48:48;;;;;;;4.40;3.47;;;;;;;7.42;71.18;98970.92;1680796;83;21074;-70
2022/04/09 04:51:16;;;;;;;4.30;3.77;;;;;;;7.47;70.92;98968.50;1690858;83;21003;-69
2022/04/09 04:53:43;;;;;;;3.37;3.08;;;;;;;7.50;70.49;98964.13;1689294;83;21078;-69
2022/04/09 04:56:10;;;;;;;6.03;3.15;;;;;;;7.56;70.27;98960.66;1688961;83;20998;-69
2022/04/09 04:58:39;;;;;;;3.33;2.80;;;;;;;7.59;69.80;98965.57;1691556;83;21534;-69
2022/04/09 05:01:07;;;;;;;4.37;2.90;;;;;;;7.64;69.99;98964.14;1693389;83;20990;-68
2022/04/09 05:03:37;;;;;;;2.67;2.33;;;;;;;7.67;70.02;98971.70;1689962;83;21111;-69
2022/04/09 05:06:05;;;;;;;6.50;2.57;;;;;;;7.72;69.75;98969.23;1690249;83;21105;-69
2022/04/09 05:08:33;;;;;;;5.07;3.20;;;;;;;7.77;69.46;98950.36;1690792;83;21071;-69
2022/04/09 05:11:02;;;;;;;4.40;4.03;;;;;;;7.80;69.41;98942.02;1689930;83;21173;-69
2022/04/09 05:13:31;;;;;;;6.87;3.03;;;;;;;7.83;68.94;98935.47;1688584;83;21653;-69
2022/04/09 05:16:00;;;;;;;3.63;2.77;;;;;;;7.86;68.84;98931.09;1693177;83;21098;-69
2022/04/09 05:18:29;;;;;;;5.30;3.77;;;;;;;7.88;68.29;98916.30;1693385;84;20991;-69
2022/04/09 05:20:56;;;;;;;5.87;4.20;;;;;;;7.92;68.25;98905.06;1692719;83;21546;-69
2022/04/09 05:23:23;;;;;;;9.53;5.70;;;;;;;7.94;68.11;98906.19;1663329;84;21033;-69
2022/04/09 05:25:51;;;;;;;11.63;7.07;;;;;;;7.96;68.35;98907.59;1672015;83;21136;-69
2022/04/09 05:28:18;;;;;;;10.83;7.27;;;;;;;7.97;68.35;98894.65;1688927;82;21011;-69
2022/04/09 05:30:47;;;;;;;11.13;5.83;;;;;;;8.01;68.30;98899.03;1679406;83;21073;-69
2022/04/09 05:33:14;;;;;;;5.43;4.47;;;;;;;8.04;68.26;98885.85;1676610;83;21061;-69
2022/04/09 05:35:44;;;;;;;7.90;4.53;;;;;;;8.09;68.02;98880.23;1705610;83;21043;-70
2022/04/09 05:38:12;;;;;;;6.90;4.07;;;;;;;8.13;67.70;98873.99;1703925;83;21146;-75
2022/04/09 05:40:39;;;;;;;;;;;;;;;8.16;67.59;98862.97;1705150;83;21082;-76
2022/04/09 05:43:08;;;;;;;5.13;3.40;;;;;;;8.15;67.41;98864.79;1705731;83;20463;-72
2022/04/09 05:45:36;;;;;;;4.07;3.67;;;;;;;8.08;67.65;98857.87;1700247;83;21053;-69
2022/04/09 05:48:04;;;;;;;4.77;3.80;;;;;;;8.07;67.57;98858.39;1693458;83;21042;-75
2022/04/09 05:50:43;;;;;;;4.63;3.57;;;;;;;8.06;66.78;98864.74;1684098;83;21137;-70
2022/04/09 05:53:11;;;;;;;4.23;2.90;;;;;;;8.01;67.25;98865.06;1697027;83;21021;-70
2022/04/09 05:55:38;;;;;;;6.65;3.70;;;;;;;7.93;67.21;98854.12;1673412;84;21066;-69
2022/04/09 05:58:05;;;;;;;4.50;2.47;;;;;;;7.93;67.25;98856.29;1639000;85;21171;-68
2022/04/09 06:00:34;;;;;;;5.93;2.97;;;;;;;7.93;67.21;98849.66;1618771;86;21170;-68
2022/04/09 06:03:18;;;;;;;2.40;1.93;;;;;;;7.95;67.31;98840.98;1668332;84;21814;-69
2022/04/09 06:05:45;;;;;;;5.10;3.10;;;;;;;8.01;67.22;98838.00;1683522;84;21135;-69
2022/04/09 06:08:15;;;;;;;3.37;2.37;;;;;;;8.08;67.12;98826.03;1688320;84;21116;-69
2022/04/09 06:10:42;;;;;;;;;;;;;;;8.07;66.71;98829.72;1686613;84;21245;-70
2022/04/09 06:13:12;;;;;;;3.67;2.70;;;;;;;8.08;66.83;98828.19;1677544;83;20187;-70
2022/04/09 06:15:41;;;;;;;4.30;3.67;;;;;;;7.99;66.95;98826.27;1676676;84;21141;-70
2022/04/09 06:18:10;;;;;;;6.67;3.83;;;;;;;8.04;66.62;98824.30;1677075;83;21034;-70
2022/04/09 06:20:39;;;;;;;5.77;3.00;;;;;;;8.12;66.26;98816.65;1645348;85;21064;-71
2022/04/09 06:23:08;;;;;;;5.63;2.70;;;;;;;8.21;66.00;98813.23;1679875;82;20989;-69
2022/04/09 06:25:35;;;;;;;6.83;3.93;;;;;;;8.28;65.58;98814.83;1691859;83;21113;-71
2022/04/09 06:28:03;;;;;;;4.93;3.23;;;;;;;8.36;65.30;98814.61;1692177;83;21033;-71
2022/04/09 06:30:33;;;;;;;4.10;3.60;;;;;;;8.39;64.48;98810.70;1693001;83;21561;-70
2022/04/09 06:33:04;;;;;;;11.00;4.57;;;;;;;8.32;64.91;98782.84;1695080;83;21505;-69
2022/04/09 06:35:33;;;;;;;5.03;4.47;;;;;;;8.51;64.79;98796.27;1690637;83;20994;-69
2022/04/09 06:37:59;;;;;;;;;;;;;;;8.57;64.12;98792.78;1692987;83;21050;-70
2022/04/09 06:40:28;;;;;;;5.60;4.30;;;;;;;8.58;63.37;98805.83;1686570;83;20261;-70
2022/04/09 06:42:57;;;;;;;8.73;5.13;;;;;;;8.58;63.36;98807.68;1687333;83;22335;-69
2022/04/09 06:45:45;;;;;;;6.93;4.00;;;;;;;8.66;63.47;98792.00;1691875;83;21080;-70
2022/04/09 06:48:16;;;;;;;9.37;5.10;;;;;;;8.73;62.92;98783.48;1679623;83;21076;-69
2022/04/09 06:50:47;;;;;;;7.47;4.73;;;;;;;8.80;62.79;98791.39;1656820;85;21042;-70
2022/04/09 06:53:15;;;;;;;5.97;4.47;;;;;;;8.82;62.80;98797.34;1651740;85;21094;-71
2022/04/09 06:55:41;;;;;;;6.75;4.28;;;;;;;8.88;62.49;98770.70;1691293;83;21568;-71
2022/04/09 06:58:07;;;;;;;;;;;;;;;8.99;61.91;98791.79;1689879;83;21136;-70
2022/04/09 07:00:37;;;;;;;4.80;3.80;;;;;;;9.08;61.43;98796.30;1691061;83;20171;-69
2022/04/09 07:03:05;;;;;;;4.93;4.03;;;;;;;9.14;62.01;98787.48;1690367;83;21607;-69
2022/04/09 07:05:32;;;;;;;6.20;4.20;;;;;;;9.21;61.71;98780.77;1691390;83;21102;-70
2022/04/09 07:08:48;;;;;;;;;;;;;;;9.30;60.71;98782.13;1693453;82;21354;-70
2022/04/09 07:11:15;;;;;;;4.83;3.63;;;;;;;9.38;60.68;98784.53;1692309;83;20150;-69
2022/04/09 07:13:43;;;;;;;7.20;4.40;;;;;;;9.37;60.99;98778.09;1691141;83;21111;-70
2022/04/09 07:16:10;;;;;;;4.97;3.33;;;;;;;9.43;60.75;98783.34;1692496;83;21062;-69
2022/04/09 07:18:37;;;;;;;3.50;2.60;;;;;;;9.49;60.17;98781.16;1684927;83;21078;-70
2022/04/09 07:21:05;;;;;;;5.40;2.70;;;;;;;9.52;59.67;98791.33;1689332;83;21081;-70
2022/04/09 07:23:32;;;;;;;7.00;2.20;;;;;;;9.57;60.04;98784.05;1689706;83;21112;-69
2022/04/09 07:25:58;;;;;;;2.58;1.40;;;;;;;9.65;59.82;98793.58;1690230;83;21073;-70
2022/04/09 07:28:26;;;;;;;3.23;1.33;;;;;;;9.69;59.30;98792.91;1689759;83;21018;-70
2022/04/09 07:30:53;;;;;;;1.65;1.17;;;;;;;9.75;59.15;98777.91;1694708;83;21087;-70
2022/04/09 07:33:21;;;;;;;5.47;0.97;;;;;;;9.82;58.93;98776.52;1694450;83;21465;-72
2022/04/09 07:35:49;;;;;;;3.60;0.87;;;;;;;9.86;58.44;98788.34;1689323;83;21128;-72
2022/04/09 07:38:16;;;;;;;2.27;1.03;;;;;;;9.89;58.48;98790.05;1684927;83;21114;-71
2022/04/09 07:40:43;;;;;;;1.23;1.00;;;;;;;9.93;58.57;98783.24;1691430;83;21022;-72
2022/04/09 07:43:10;;;;;;;3.02;1.25;;;;;;;10.02;58.86;98781.11;1692952;83;21137;-72
2022/04/09 07:45:38;;;;;;;5.03;1.13;;;;;;;10.09;58.49;98782.34;1692140;83;21552;-71
2022/04/09 07:48:11;;;;;;;5.43;1.17;;;;;;;10.12;58.54;98769.92;1688534;83;21017;-70
2022/04/09 07:50:38;;;;;;;1.50;1.23;;;;;;;10.18;58.41;98771.69;1688116;83;21064;-72
2022/04/09 07:53:05;;;;;;;5.77;1.23;;;;;;;10.24;57.72;98757.99;1688621;83;21743;-71
2022/04/09 07:55:32;;;;;;;2.23;1.40;;;;;;;10.31;58.18;98766.22;1686646;83;21531;-69
2022/04/09 07:57:59;;;;;;;;;;;;;;;10.39;57.98;98764.28;1680906;83;21420;-70
2022/04/09 08:00:28;;;;;;;2.00;0.93;;;;;;;10.46;57.73;98770.34;1676808;83;20391;-71
2022/04/09 08:02:54;;;;;;;1.80;0.67;;;;;;;10.49;57.45;98761.88;1676040;84;21027;-69
2022/04/09 08:05:21;;;;;;;3.98;1.05;;;;;;;10.54;57.33;98763.36;1666925;84;22331;-71
2022/04/09 08:07:49;;;;;;;0.50;0.50;;;;;;;10.60;56.29;98764.30;1665623;84;21020;-69
2022/04/09 08:10:16;;;;;;;1.43;0.70;;;;;;;10.60;56.47;98761.11;1659835;85;21068;-71
2022/04/09 08:12:46;;;;;;;1.10;0.50;;;;;;;10.65;57.24;98759.91;1671113;83;21068;-71
2022/04/09 08:15:12;;;;;;;5.60;0.77;;;;;;;10.65;57.05;98737.27;1673967;84;21100;-71
2022/04/09 08:17:40;;;;;;;2.63;0.50;;;;;;;10.71;56.97;98747.01;1675190;84;21132;-72
2022/04/09 08:20:12;;;;;;;1.17;0.50;;;;;;;10.72;56.99;98739.84;1670872;84;21104;-69
2022/04/09 08:22:43;;;;;;;3.27;0.60;;;;;;;10.77;57.16;98747.14;1650697;84;21042;-71
2022/04/09 08:25:10;;;;;;;2.00;0.50;;;;;;;10.83;56.96;98746.22;1660665;85;21675;-71
2022/04/09 08:27:38;;;;;;;2.95;0.23;;;;;;;10.88;56.59;98751.16;1659527;85;21134;-71
2022/04/09 08:30:07;;;;;;;1.80;0.93;;;;;;;10.89;56.27;98738.13;1662276;85;21077;-70
2022/04/09 08:32:34;;;;;;;2.17;0.60;;;;;;;10.89;56.08;98738.66;1663584;85;21053;-72
2022/04/09 08:35:00;;;;;;;2.00;0.57;;;;;;;10.93;56.43;98733.69;1645571;85;21101;-70
2022/04/09 08:37:28;;;;;;;3.47;0.53;;;;;;;10.94;56.23;98739.30;1644300;86;21681;-70
2022/04/09 08:39:55;;;;;;;1.52;0.40;;;;;;;11.00;56.49;98735.20;1650350;86;21237;-70
2022/04/09 08:42:24;;;;;;;2.20;0.63;;;;;;;11.02;56.31;98738.45;1646554;86;21054;-71
2022/04/09 08:44:51;;;;;;;2.33;0.63;;;;;;;11.02;55.42;98742.45;1660694;85;21532;-70
2022/04/09 08:47:18;;;;;;;2.97;0.50;;;;;;;11.03;55.91;98740.05;1682444;85;21107;-71
2022/04/09 08:49:48;;;;;;;1.27;0.40;;;;;;;11.03;55.83;98741.91;1684153;84;21107;-71
2022/04/09 08:52:16;;;;;;;1.33;0.47;;;;;;;11.07;55.79;98745.74;1682417;84;21046;-70
2022/04/09 08:54:45;;;;;;;0.83;0.23;;;;;;;11.10;55.60;98742.63;1682093;84;21102;-71
2022/04/09 08:57:11;;;;;;;0.57;0.50;;;;;;;11.12;55.16;98745.88;1709766;83;21596;-71
2022/04/09 08:59:38;;;;;;;1.57;0.40;;;;;;;11.18;55.62;98745.47;1718021;83;21031;-71
2022/04/09 09:02:05;;;;;;;8.15;0.68;;;;;;;11.18;55.86;98746.80;1690613;83;21065;-71
2022/04/09 09:04:33;;;;;;;1.07;0.33;;;;;;;11.17;55.39;98746.00;1686411;83;21577;-71
2022/04/09 09:07:21;;;;;;;0.90;0.50;;;;;;;11.17;55.57;98744.66;1686319;83;21070;-70
2022/04/09 09:09:51;;;;;;;1.23;0.40;;;;;;;11.17;56.28;98747.83;1685918;83;21465;-71
2022/04/09 09:12:29;;;;;;;1.40;0.40;;;;;;;11.14;56.82;98748.31;1663655;83;21050;-71
2022/04/09 09:14:57;;;;;;;2.83;0.50;;;;;;;11.06;56.93;98762.80;1641722;86;21138;-71
2022/04/09 09:17:30;;;;;;;2.67;0.87;;;;;;;11.05;57.65;98748.63;1643113;86;21093;-71
2022/04/09 09:19:57;;;;;;;2.40;0.43;;;;;;;11.04;58.33;98757.69;1639765;86;21102;-71
2022/04/09 09:22:42;;;;;;;2.50;0.60;;;;;;;11.01;58.29;98755.47;1641575;86;21279;-72
2022/04/09 09:25:11;;;;;;;1.37;0.90;;;;;;;11.05;58.72;98749.16;1586605;90;21081;-71
2022/04/09 09:27:40;;;;;;;0.87;0.83;;;;;;;11.09;58.79;98747.66;1612340;87;21154;-72
2022/04/09 09:30:12;;;;;;;2.50;0.50;;;;;;;11.13;59.37;98752.00;1611611;87;21086;-71
2022/04/09 09:33:24;;;;;;;1.77;0.80;;;;;;;11.16;58.43;98742.22;1611828;87;21162;-72
2022/04/09 09:36:25;;;;;;;1.80;0.90;;;;;;;11.19;57.90;98748.41;1540135;89;21093;-72
2022/04/09 09:45:27;;;;;;;1.17;0.50;;;;;;;11.22;59.66;98746.62;1520443;90;21086;-73
2022/04/09 09:48:09;;;;;;;2.10;1.25;;;;;;;11.28;60.26;98744.36;1609304;87;21013;-73
2022/04/09 09:51:05;;;;;;;3.57;1.37;;;;;;;11.34;59.89;98742.62;1599463;88;22193;-71
2022/04/09 09:53:53;;;;;;;3.13;1.20;;;;;;;11.36;59.80;98737.36;1588492;87;21038;-68
2022/04/09 09:56:51;;;;;;;3.00;0.93;;;;;;;11.41;60.14;98728.64;1614309;86;21062;-72
2022/04/09 09:59:40;;;;;;;3.33;0.97;;;;;;;11.39;58.89;98724.87;1638062;86;21002;-70
2022/04/09 10:02:39;;;;;;;4.90;0.73;;;;;;;11.33;59.65;98713.80;1661319;84;21013;-73
2022/04/09 10:05:07;;;;;;;0.73;0.53;;;;;;;11.38;59.89;98708.59;1653081;84;21105;-71
2022/04/09 10:07:35;;;;;;;2.50;1.10;;;;;;;11.47;59.23;98696.52;1672662;84;21024;-71
2022/04/09 10:10:03;;;;;;;3.13;1.10;;;;;;;11.56;59.25;98696.15;1672917;84;21066;-72
2022/04/09 10:12:34;;;;;;;7.60;0.80;;;;;;;11.62;58.31;98693.37;1670023;84;21078;-71
2022/04/09 10:15:03;;;;;;;1.73;1.63;;;;;;;11.62;58.74;98689.36;1635665;86;21569;-71
2022/04/09 10:17:31;;;;;;;5.17;1.83;;;;;;;11.68;58.21;98681.74;1671072;84;21071;-72
2022/04/09 10:20:02;;;;;;;6.93;3.10;;;;;;;11.77;58.04;98680.86;1639989;84;21143;-71
2022/04/09 10:22:35;;;;;;;3.77;3.37;;;;;;;11.86;57.37;98674.07;1651135;85;21574;-73
2022/04/09 10:25:05;;;;;;;3.93;3.47;;;;;;;11.92;57.01;98672.88;1673777;84;21199;-71
2022/04/09 10:27:39;;;;;;;6.23;3.83;;;;;;;11.96;57.40;98673.52;1667458;84;21084;-72
2022/04/09 10:30:22;;;;;;;4.80;3.37;;;;;;;11.91;56.48;98673.94;1671298;84;21377;-70
2022/04/09 10:32:59;;;;;;;6.40;4.35;;;;;;;11.88;56.57;98672.00;1671989;84;21111;-72
2022/04/09 10:35:40;;;;;;;4.73;2.97;;;;;;;11.91;57.46;98679.28;1672532;84;21044;-70
2022/04/09 10:38:12;;;;;;;4.62;2.95;;;;;;;11.92;57.45;98685.69;1669889;84;21108;-70
2022/04/09 10:40:57;;;;;;;4.93;2.57;;;;;;;11.96;57.15;98690.03;1676523;84;21188;-73
2022/04/09 10:43:30;;;;;;;4.77;2.33;;;;;;;11.96;56.84;98690.03;1670974;84;21036;-73
2022/04/09 10:46:20;;;;;;;5.87;2.33;;;;;;;11.97;56.88;98690.34;1689191;83;21397;-71
2022/04/09 10:48:42;;;;;;;3.98;2.25;;;;;;;11.98;56.74;98687.94;1690301;83;21081;-71
2022/04/09 10:51:12;;;;;;;4.53;2.57;;;;;;;11.98;56.46;98683.43;1693183;83;20998;-73
2022/04/09 10:53:43;;;;;;;6.03;2.52;;;;;;;12.03;56.63;98685.38;1691701;83;21081;-71
2022/04/09 10:56:24;;;;;;;4.53;2.27;;;;;;;12.07;56.86;98682.00;1695897;82;21678;-73
2022/04/09 10:59:19;;;;;;;6.22;2.30;;;;;;;12.13;56.45;98668.72;1705818;82;21487;-71
2022/04/09 11:01:50;;;;;;;2.08;1.67;;;;;;;12.16;56.47;98667.72;1699627;82;21398;-71
2022/04/09 11:04:32;;;;;;;6.10;3.02;;;;;;;12.17;56.33;98664.02;1706539;82;21518;-72
2022/04/09 11:07:06;;;;;;;3.33;2.60;;;;;;;12.18;56.49;98658.14;1691483;82;21088;-72
2022/04/09 11:10:03;;;;;;;10.32;3.10;;;;;;;12.18;56.29;98661.61;1703343;82;21054;-72
2022/04/09 11:12:42;;;;;;;6.20;3.05;;;;;;;12.20;56.50;98660.05;1698902;82;22355;-73
2022/04/09 11:15:12;;;;;;;4.78;3.00;;;;;;;12.23;56.20;98647.02;1705632;82;21173;-74
2022/04/09 11:17:43;;;;;;;7.03;3.33;;;;;;;12.29;56.27;98640.44;1705592;82;21146;-71
2022/04/09 11:20:16;;;;;;;12.40;5.77;;;;;;;12.36;56.12;98639.23;1702298;82;21686;-74
2022/04/09 11:22:53;;;;;;;7.08;3.05;;;;;;;12.42;55.80;98637.45;1703245;82;21234;-71
2022/04/09 11:25:26;;;;;;;3.77;2.00;;;;;;;12.48;55.56;98627.13;1706306;82;21062;-71
2022/04/09 11:28:07;;;;;;;4.25;2.30;;;;;;;12.56;55.33;98618.70;1705767;82;21085;-70
2022/04/09 11:30:34;;;;;;;4.78;2.22;;;;;;;12.62;55.28;98622.26;1702867;82;21023;-72
2022/04/09 11:33:01;;;;;;;6.25;2.47;;;;;;;12.69;55.62;98620.77;1706257;82;21133;-72
2022/04/09 11:35:35;;;;;;;7.35;2.35;;;;;;;12.73;55.73;98627.24;1690935;83;21192;-73
2022/04/09 11:38:02;;;;;;;4.10;1.75;;;;;;;12.77;56.05;98635.05;1692037;83;21177;-72
2022/04/09 11:40:30;;;;;;;5.62;1.42;;;;;;;12.77;56.20;98640.40;1664280;85;22239;-72
2022/04/09 11:42:57;;;;;;;4.12;1.37;;;;;;;12.81;56.31;98648.24;1690788;83;22335;-73
2022/04/09 11:45:31;;;;;;;6.67;1.50;;;;;;;12.84;56.59;98659.23;1689320;83;21054;-71
2022/04/09 11:48:02;;;;;;;5.03;1.90;;;;;;;12.87;56.95;98662.50;1689685;83;21675;-72
2022/04/09 11:50:32;;;;;;;6.15;2.45;;;;;;;12.88;57.38;98672.92;1657573;83;21031;-72
2022/04/09 11:53:16;;;;;;;5.78;1.75;;;;;;;12.89;57.89;98677.77;1691083;83;21045;-71
2022/04/09 11:55:46;;;;;;;7.83;1.42;;;;;;;12.87;58.34;98689.23;1684462;83;21037;-73
2022/04/09 11:58:14;;;;;;;5.65;2.33;;;;;;;12.82;58.79;98688.08;1687270;83;21101;-72
2022/04/09 12:00:46;;;;;;;5.37;1.32;;;;;;;12.81;59.04;98685.67;1655061;85;21374;-73
2022/04/09 12:03:15;;;;;;;7.50;2.92;;;;;;;12.80;59.31;98682.70;1668618;84;21050;-72
2022/04/09 12:05:48;;;;;;;1.67;1.12;;;;;;;12.77;59.55;98673.81;1688954;83;21112;-70